createdAt,value
2022-09-07T00:03:37.180Z,100.00
2022-09-07T00:08:39.324Z,100.00
2022-09-07T00:13:41.672Z,100.00
2022-09-07T00:18:46.067Z,100.00
2022-09-07T00:23:49.697Z,100.00
2022-09-07T00:28:50.864Z,100.00
2022-09-07T00:33:54.860Z,100.00
2022-09-07T00:38:55.762Z,100.00
2022-09-07T00:43:59.054Z,100.00
2022-09-07T00:49:08.233Z,100.00
2022-09-07T00:54:13.221Z,100.00
2022-09-07T00:59:16.613Z,100.00
2022-09-07T01:04:19.405Z,100.00
2022-09-07T01:09:22.991Z,100.00
2022-09-07T01:14:26.745Z,100.00
2022-09-07T01:20:03.991Z,100.00
2022-09-07T01:25:11.397Z,100.00
2022-09-07T01:30:15.446Z,100.00
2022-09-07T01:35:23.939Z,100.00
2022-09-07T01:40:31.563Z,100.00
2022-09-07T01:45:37.705Z,100.00
2022-09-07T01:50:41.496Z,100.00
2022-09-07T01:55:46.587Z,100.00
2022-09-07T02:00:54.061Z,100.00
2022-09-07T02:06:01.714Z,100.00
2022-09-07T02:11:06.251Z,100.00
2022-09-07T02:16:13.876Z,100.00
2022-09-07T02:21:18.653Z,100.00
2022-09-07T02:26:22.062Z,100.00
2022-09-07T02:31:24.687Z,100.00
2022-09-07T02:36:32.292Z,100.00
2022-09-07T02:41:35.341Z,100.00
2022-09-07T02:47:06.765Z,100.00
2022-09-07T02:52:17.641Z,100.00
2022-09-07T02:57:27.453Z,100.00
2022-09-07T03:02:36.215Z,100.00
2022-09-07T03:07:44.260Z,100.00
2022-09-07T03:12:47.237Z,100.00
2022-09-07T03:17:49.682Z,100.00
2022-09-07T03:22:52.111Z,100.00
2022-09-07T03:27:52.747Z,100.00
2022-09-07T03:32:54.731Z,100.00
2022-09-07T03:37:55.356Z,100.00
2022-09-07T03:42:55.954Z,100.00
2022-09-07T03:47:57.947Z,100.00
2022-09-07T03:52:58.555Z,100.00
2022-09-07T03:58:00.164Z,100.00
2022-09-07T04:03:02.085Z,100.00
2022-09-07T04:08:03.172Z,100.00
2022-09-07T04:13:03.774Z,100.00
2022-09-07T04:18:05.782Z,100.00
2022-09-07T04:23:06.399Z,100.00
2022-09-07T04:28:07.019Z,100.00
2022-09-07T04:33:10.395Z,100.00
2022-09-07T04:38:15.348Z,100.00
2022-09-07T04:43:15.955Z,100.00
2022-09-07T04:48:17.878Z,100.00
2022-09-07T04:53:18.683Z,100.00
2022-09-07T04:58:19.294Z,100.00
2022-09-07T05:03:21.290Z,100.00
2022-09-07T05:08:21.931Z,100.00
2022-09-07T05:13:22.717Z,100.00
2022-09-07T05:18:24.882Z,100.00
2022-09-07T05:23:26.255Z,100.00
2022-09-07T05:28:26.897Z,100.00
2022-09-07T05:38:49.493Z,99.94
2022-09-07T05:49:12.586Z,99.33
2022-09-07T05:54:13.255Z,98.65
2022-09-07T05:59:13.855Z,97.65
2022-09-07T06:04:15.888Z,96.24
2022-09-07T06:09:17.157Z,95.09
2022-09-07T06:14:17.790Z,92.48
2022-09-07T06:19:19.845Z,91.20
2022-09-07T06:24:20.486Z,90.50
2022-09-07T06:29:21.077Z,89.76
2022-09-07T06:34:24.148Z,90.03
2022-09-07T06:39:24.853Z,90.29
2022-09-07T06:44:25.576Z,89.99
2022-09-07T06:49:27.546Z,88.35
2022-09-07T06:59:48.943Z,87.96
2022-09-07T07:04:51.837Z,86.73
2022-09-07T07:09:52.451Z,85.36
2022-09-07T07:14:53.035Z,84.90
2022-09-07T07:19:54.962Z,84.93
2022-09-07T07:24:55.653Z,84.15
2022-09-07T07:29:56.260Z,84.24
2022-09-07T07:34:58.182Z,83.93
2022-09-07T07:40:14.568Z,83.40
2022-09-07T07:50:37.626Z,81.76
2022-09-07T07:55:45.676Z,83.13
2022-09-07T08:00:55.210Z,81.77
2022-09-07T08:05:58.060Z,81.32
2022-09-07T08:10:58.752Z,80.36
2022-09-07T08:15:59.508Z,80.61
2022-09-07T08:21:02.239Z,79.90
2022-09-07T08:26:02.874Z,79.69
2022-09-07T08:31:06.097Z,79.45
2022-09-07T08:36:09.851Z,79.43
2022-09-07T08:41:39.268Z,78.18
2022-09-07T08:46:45.613Z,77.71
2022-09-07T08:51:51.769Z,77.41
2022-09-07T09:02:40.267Z,75.53
2022-09-07T09:07:47.245Z,74.89
2022-09-07T09:13:05.402Z,72.33
2022-09-07T09:18:20.917Z,70.88
2022-09-07T09:23:26.737Z,68.86
2022-09-07T09:28:30.270Z,67.48
2022-09-07T09:33:33.107Z,66.43
2022-09-07T09:38:36.883Z,65.05
2022-09-07T09:43:45.386Z,65.43
2022-09-07T09:48:54.296Z,64.69
2022-09-07T09:54:00.148Z,62.81
2022-09-07T10:04:35.495Z,60.67
2022-09-07T10:09:40.457Z,60.57
2022-09-07T10:14:45.272Z,60.04
2022-09-07T10:19:45.954Z,59.44
2022-09-07T10:24:47.902Z,59.57
2022-09-07T10:29:48.953Z,59.51
2022-09-07T10:35:05.275Z,60.40
2022-09-07T10:40:20.766Z,60.15
2022-09-07T10:45:28.921Z,61.58
2022-09-07T10:50:38.212Z,62.11
2022-09-07T10:55:43.416Z,62.83
2022-09-07T11:00:52.265Z,61.09
2022-09-07T11:06:07.347Z,59.11
2022-09-07T11:12:00.352Z,59.00
2022-09-07T11:16:51.735Z,58.36
2022-09-07T11:22:04.950Z,57.79
2022-09-07T11:27:15.498Z,57.34
2022-09-07T11:32:22.353Z,58.15
2022-09-07T11:37:29.156Z,56.33
2022-09-07T11:42:45.979Z,55.79
2022-09-07T11:47:51.599Z,55.66
2022-09-07T11:52:56.313Z,56.01
2022-09-07T11:58:29.923Z,57.72
2022-09-07T12:03:54.756Z,58.71
2022-09-07T12:09:07.665Z,58.63
2022-09-07T12:14:31.342Z,59.00
2022-09-07T12:19:32.087Z,58.58
2022-09-07T12:24:42.099Z,58.68
2022-09-07T12:29:45.568Z,59.32
2022-09-07T12:34:57.959Z,59.82
2022-09-07T12:40:33.120Z,61.79
2022-09-07T12:45:53.407Z,63.81
2022-09-07T12:50:58.875Z,65.99
2022-09-07T12:56:24.322Z,66.41
2022-09-07T13:01:36.287Z,68.55
2022-09-07T13:07:04.570Z,69.63
2022-09-07T13:17:56.335Z,76.62
2022-09-07T13:23:22.763Z,80.36
2022-09-07T13:28:34.829Z,82.01
2022-09-07T13:33:48.241Z,84.26
2022-09-07T13:38:51.320Z,85.41
2022-09-07T13:43:58.715Z,85.10
2022-09-07T13:49:07.518Z,84.14
2022-09-07T13:54:16.873Z,80.96
2022-09-07T13:59:22.068Z,77.70
2022-09-07T14:04:27.196Z,74.78
2022-09-07T14:09:27.823Z,73.81
2022-09-07T14:14:30.190Z,75.14
2022-09-07T14:19:39.236Z,75.46
2022-09-07T14:24:43.509Z,74.95
2022-09-07T14:29:44.121Z,73.14
2022-09-07T14:34:46.934Z,72.90
2022-09-07T14:39:50.387Z,72.11
2022-09-07T14:44:53.242Z,71.45
2022-09-07T14:49:58.073Z,69.00
2022-09-07T14:54:58.848Z,68.89
2022-09-07T15:00:19.396Z,68.98
2022-09-07T15:05:25.637Z,67.74
2022-09-07T15:10:36.833Z,67.41
2022-09-07T15:15:39.551Z,67.72
2022-09-07T15:20:44.267Z,66.58
2022-09-07T15:25:50.860Z,65.15
2022-09-07T15:31:39.633Z,65.83
2022-09-07T15:36:17.501Z,63.77
2022-09-07T15:41:24.199Z,62.42
2022-09-07T15:46:26.396Z,60.57
2022-09-07T16:13:01.799Z,61.78
2022-09-07T16:18:04.453Z,63.04
2022-09-07T16:23:14.690Z,64.49
2022-09-07T16:28:16.063Z,66.44
2022-09-07T16:33:16.709Z,68.84
2022-09-07T16:43:39.318Z,71.68
2022-09-07T16:48:39.910Z,72.96
2022-09-07T16:53:42.135Z,74.24
2022-09-07T16:58:44.433Z,73.72
2022-09-07T17:03:45.611Z,74.32
2022-09-07T17:08:48.389Z,74.61
2022-09-07T17:13:49.682Z,75.27
2022-09-07T17:24:12.941Z,76.65
2022-09-07T17:29:13.586Z,78.39
2022-09-07T17:34:14.229Z,78.56
2022-09-07T17:39:18.143Z,78.88
2022-09-07T17:44:19.340Z,79.23
2022-09-07T17:49:19.973Z,79.38
2022-09-07T17:54:22.233Z,79.66
2022-09-07T18:04:43.819Z,79.81
2022-09-07T18:09:45.925Z,80.04
2022-09-07T18:14:46.625Z,79.02
2022-09-07T18:19:47.233Z,79.41
2022-09-07T18:24:50.985Z,79.64
2022-09-07T18:29:51.611Z,79.41
2022-09-07T18:34:52.324Z,80.26
2022-09-07T18:39:54.554Z,80.89
2022-09-07T18:50:16.909Z,81.63
2022-09-07T18:55:18.822Z,81.93
2022-09-07T19:00:19.618Z,82.04
2022-09-07T19:10:42.301Z,83.24
2022-09-07T19:15:42.981Z,83.70
2022-09-07T19:20:43.646Z,83.93
2022-09-07T19:25:45.649Z,84.61
2022-09-07T19:30:46.377Z,85.69
2022-09-07T19:35:46.997Z,86.22
2022-09-07T19:40:57.484Z,87.57
2022-09-07T19:45:59.202Z,87.45
2022-09-07T19:51:02.325Z,88.49
2022-09-07T19:56:06.294Z,89.63
2022-09-07T20:01:08.646Z,89.72
2022-09-07T20:06:11.421Z,90.83
2022-09-07T20:11:16.261Z,91.72
2022-09-07T20:16:19.656Z,92.67
2022-09-07T20:21:22.458Z,93.26
2022-09-07T20:26:24.443Z,93.26
2022-09-07T20:31:26.195Z,95.19
2022-09-07T20:36:26.859Z,95.59
2022-09-07T20:41:31.256Z,94.20
2022-09-07T20:46:32.510Z,93.86
2022-09-07T20:51:33.355Z,94.12
2022-09-07T20:56:35.332Z,95.25
2022-09-07T21:01:36.603Z,95.19
2022-09-07T21:06:37.390Z,94.73
2022-09-07T21:11:41.266Z,94.86
2022-09-07T21:16:42.540Z,96.68
2022-09-07T21:21:43.855Z,97.49
2022-09-07T21:26:46.132Z,96.27
2022-09-07T21:31:47.393Z,95.95
2022-09-07T21:36:48.026Z,96.99
2022-09-07T21:41:49.931Z,96.97
2022-09-07T21:46:51.133Z,98.11
2022-09-07T21:51:51.884Z,99.21
2022-09-07T21:56:54.187Z,99.47
2022-09-07T22:01:54.810Z,99.04
2022-09-07T22:06:55.521Z,97.91
2022-09-07T22:11:57.551Z,97.72
2022-09-07T22:16:58.167Z,97.63
2022-09-07T22:21:58.778Z,98.37
2022-09-07T22:27:00.663Z,99.20
2022-09-07T22:32:01.294Z,99.84
2022-09-07T22:37:01.917Z,99.97
2022-09-07T22:42:03.902Z,100.00
2022-09-07T22:47:04.653Z,100.00
2022-09-07T22:52:05.338Z,100.00
2022-09-07T22:57:07.551Z,100.00
2022-09-07T23:02:08.260Z,100.00
2022-09-07T23:07:08.921Z,100.00
2022-09-07T23:12:10.839Z,100.00
2022-09-07T23:17:11.405Z,100.00
2022-09-07T23:22:11.992Z,100.00
2022-09-07T23:27:13.961Z,100.00
2022-09-07T23:32:14.586Z,100.00
2022-09-07T23:37:15.174Z,100.00
2022-09-07T23:42:17.089Z,100.00
2022-09-07T23:47:17.837Z,100.00
2022-09-07T23:52:18.445Z,100.00
2022-09-07T23:57:20.334Z,100.00
